Time;durP1;ratioP1;P1;durP2;ratioP2;P2;SDS_P1;SDS_P2;PMS_P1;PMS_P2;Temp;Humidity;BMP_temperature;BMP_pressure;BME280_temperature;BME280_humidity;BME280_pressure;Samples;Min_cycle;Max_cycle;Signal;HPM_P1;HPM_P2
2024/02/24 00:01:04;;;;;;;11.50;7.70;;;;;;;;;;5023226;28;20030;-50
2024/02/24 00:03:30;;;;;;;20.95;9.38;;;;;;;;;;5011826;28;20635;-51
2024/02/24 00:05:57;;;;;;;13.35;8.50;;;;;;;;;;5012795;28;20580;-51
2024/02/24 00:08:23;;;;;;;10.02;8.57;;;;;;;;;;5011939;28;20026;-52
2024/02/24 00:10:49;;;;;;;11.80;9.10;;;;;;;;;;5026188;28;20033;-48
2024/02/24 00:13:15;;;;;;;23.40;15.80;;;;;;;;;;5024403;28;20025;-49
2024/02/24 00:15:42;;;;;;;14.48;11.20;;;;;;;;;;5019101;28;20293;-51
2024/02/24 00:18:08;;;;;;;10.13;7.68;;;;;;;;;;5035384;28;20105;-52
2024/02/24 00:20:34;;;;;;;9.85;7.20;;;;;;;;;;5017623;28;20488;-50
2024/02/24 00:23:00;;;;;;;7.03;5.35;;;;;;;;;;5016685;28;20022;-53
2024/02/24 00:25:26;;;;;;;12.80;11.30;;;;;;;;;;5033991;28;20094;-49
2024/02/24 00:27:54;;;;;;;15.93;12.23;;;;;;;;;;5035061;28;20014;-49
2024/02/24 00:30:20;;;;;;;10.55;7.57;;;;;;;;;;5033041;28;20084;-49
2024/02/24 00:32:46;;;;;;;10.13;6.47;;;;;;;;;;5018389;28;20097;-50
2024/02/24 00:35:12;;;;;;;7.70;6.43;;;;;;;;;;5034549;28;20260;-52
2024/02/24 00:37:39;;;;;;;13.43;10.67;;;;;;;;;;5030684;28;20030;-50
2024/02/24 00:40:05;;;;;;;9.60;7.60;;;;;;;;;;5015511;28;20415;-53
2024/02/24 00:42:32;;;;;;;10.98;8.23;;;;;;;;;;5008307;28;20021;-52
2024/02/24 00:44:58;;;;;;;11.30;9.25;;;;;;;;;;5034786;28;20084;-51
2024/02/24 00:47:24;;;;;;;8.15;6.45;;;;;;;;;;5015906;28;20033;-49
2024/02/24 00:49:50;;;;;;;7.57;5.63;;;;;;;;;;5016329;28;20053;-50
2024/02/24 00:52:17;;;;;;;10.40;8.18;;;;;;;;;;5001369;28;20067;-49
2024/02/24 00:54:43;;;;;;;15.73;11.97;;;;;;;;;;5009705;28;20029;-49
2024/02/24 00:57:09;;;;;;;7.70;6.30;;;;;;;;;;5026208;28;20084;-51
2024/02/24 00:59:35;;;;;;;15.32;11.65;;;;;;;;;;5032095;28;20029;-53
2024/02/24 01:02:01;;;;;;;14.68;10.90;;;;;;;;;;5029131;28;20072;-49
2024/02/24 01:04:29;;;;;;;9.73;7.15;;;;;;;;;;5023412;28;20040;-49
2024/02/24 01:06:56;;;;;;;5.85;4.70;;;;;;;;;;5020835;28;20533;-50
2024/02/24 01:09:23;;;;;;;5.80;4.80;;;;;;;;;;5019268;28;20396;-52
2024/02/24 01:11:49;;;;;;;5.47;4.50;;;;;;;;;;5015559;28;20022;-53
2024/02/24 01:14:15;;;;;;;11.20;7.28;;;;;;;;;;5033326;28;20040;-51
2024/02/24 01:16:44;;;;;;;12.95;7.75;;;;;;;;;;5034464;28;20039;-52
2024/02/24 01:19:10;;;;;;;7.28;4.55;;;;;;;;;;5034445;28;20396;-53
2024/02/24 01:21:43;;;;;;;7.38;5.00;;;;;;;;;;5034310;28;20485;-50
2024/02/24 01:24:09;;;;;;;5.97;4.88;;;;;;;;;;5031911;28;20424;-50
2024/02/24 01:26:35;;;;;;;8.43;6.35;;;;;;;;;;5011992;28;20481;-53
2024/02/24 01:29:02;;;;;;;6.72;4.65;;;;;;;;;;5013294;28;20041;-52
2024/02/24 01:31:28;;;;;;;7.38;6.20;;;;;;;;;;5014434;28;20390;-53
2024/02/24 01:33:54;;;;;;;25.58;15.00;;;;;;;;;;5014422;28;20030;-49
2024/02/24 01:36:20;;;;;;;16.15;12.27;;;;;;;;;;5014252;28;20030;-50
2024/02/24 01:38:46;;;;;;;23.55;15.43;;;;;;;;;;5014187;28;20034;-53
2024/02/24 01:41:13;;;;;;;25.17;15.57;;;;;;;;;;5014581;28;20400;-53
2024/02/24 01:43:39;;;;;;;12.07;7.90;;;;;;;;;;5014254;28;20034;-50
2024/02/24 01:46:07;;;;;;;7.25;4.85;;;;;;;;;;5014038;28;20037;-53
2024/02/24 01:48:33;;;;;;;6.35;4.30;;;;;;;;;;5014124;28;20030;-53
2024/02/24 01:51:00;;;;;;;5.75;3.92;;;;;;;;;;5014113;28;20029;-50
2024/02/24 01:53:26;;;;;;;4.43;4.03;;;;;;;;;;5013934;28;20037;-56
2024/02/24 01:55:54;;;;;;;6.70;4.13;;;;;;;;;;5013754;28;20263;-52
2024/02/24 01:58:20;;;;;;;5.75;3.60;;;;;;;;;;5014027;28;20034;-50
2024/02/24 02:00:47;;;;;;;6.10;4.47;;;;;;;;;;5017061;28;20455;-52
2024/02/24 02:03:14;;;;;;;5.13;3.85;;;;;;;;;;5032056;28;20033;-53
2024/02/24 02:05:41;;;;;;;7.00;4.30;;;;;;;;;;5033868;28;20032;-51
2024/02/24 02:08:07;;;;;;;6.90;3.92;;;;;;;;;;5033462;28;20037;-49
2024/02/24 02:10:43;;;;;;;5.20;4.20;;;;;;;;;;5005896;28;20029;-51
2024/02/24 02:13:10;;;;;;;5.45;4.35;;;;;;;;;;5019055;28;20030;-51
2024/02/24 02:15:36;;;;;;;6.65;4.45;;;;;;;;;;5012137;28;20054;-49
2024/02/24 02:18:03;;;;;;;6.45;4.70;;;;;;;;;;5031956;28;20041;-51
2024/02/24 02:20:29;;;;;;;5.88;4.22;;;;;;;;;;5033302;28;20115;-51
2024/02/24 02:22:55;;;;;;;5.83;4.70;;;;;;;;;;5033210;28;20025;-49
2024/02/24 02:25:22;;;;;;;6.20;4.70;;;;;;;;;;5033007;28;20040;-50
2024/02/24 02:27:48;;;;;;;7.32;5.10;;;;;;;;;;5033184;28;20064;-51
2024/02/24 02:30:14;;;;;;;5.95;4.35;;;;;;;;;;5013542;28;20029;-50
2024/02/24 02:32:40;;;;;;;7.47;5.43;;;;;;;;;;5013307;28;20034;-51
2024/02/24 02:35:09;;;;;;;7.45;5.97;;;;;;;;;;5013579;28;20022;-51
2024/02/24 02:37:35;;;;;;;6.15;5.43;;;;;;;;;;5013152;28;20401;-49
2024/02/24 02:40:02;;;;;;;6.88;5.30;;;;;;;;;;5011932;28;20488;-50
2024/02/24 02:42:29;;;;;;;6.55;5.20;;;;;;;;;;5013083;28;20041;-49
2024/02/24 02:44:55;;;;;;;6.47;5.40;;;;;;;;;;5011851;28;20029;-51
2024/02/24 02:47:21;;;;;;;5.60;4.80;;;;;;;;;;5012723;28;20280;-49
2024/02/24 02:49:47;;;;;;;7.28;4.85;;;;;;;;;;5012901;28;20030;-53
2024/02/24 02:52:13;;;;;;;6.38;4.38;;;;;;;;;;5011663;28;20033;-53
2024/02/24 02:54:40;;;;;;;5.55;4.47;;;;;;;;;;5012963;28;20022;-50
2024/02/24 02:57:06;;;;;;;6.30;5.03;;;;;;;;;;5012904;28;20132;-50
2024/02/24 02:59:35;;;;;;;4.55;4.13;;;;;;;;;;5012800;28;20061;-51
2024/02/24 03:02:02;;;;;;;5.30;3.47;;;;;;;;;;5012597;28;20095;-52
2024/02/24 03:04:28;;;;;;;6.07;4.60;;;;;;;;;;5012475;28;20508;-49
2024/02/24 03:06:54;;;;;;;6.00;4.30;;;;;;;;;;5032162;28;20279;-53
2024/02/24 03:09:20;;;;;;;5.63;4.28;;;;;;;;;;5032397;28;20034;-49
2024/02/24 03:11:47;;;;;;;6.53;4.63;;;;;;;;;;5029898;28;20064;-49
2024/02/24 03:14:13;;;;;;;6.32;4.63;;;;;;;;;;4991729;28;20030;-50
2024/02/24 03:16:39;;;;;;;4.90;4.15;;;;;;;;;;5005607;28;20037;-50
2024/02/24 03:19:06;;;;;;;4.95;4.45;;;;;;;;;;5012271;28;20127;-50
2024/02/24 03:21:33;;;;;;;5.25;4.22;;;;;;;;;;5013501;28;20033;-49
2024/02/24 03:23:59;;;;;;;4.13;3.70;;;;;;;;;;5024486;28;20366;-50
2024/02/24 03:26:26;;;;;;;4.97;3.80;;;;;;;;;;5012483;28;20033;-50
2024/02/24 03:28:52;;;;;;;5.80;4.32;;;;;;;;;;5022718;28;20030;-51
2024/02/24 03:31:18;;;;;;;4.47;3.80;;;;;;;;;;5013773;28;20435;-49
2024/02/24 03:33:44;;;;;;;3.72;3.40;;;;;;;;;;5017149;28;20400;-49
2024/02/24 03:36:15;;;;;;;4.18;3.40;;;;;;;;;;5031843;28;20396;-49
2024/02/24 03:38:41;;;;;;;4.03;3.35;;;;;;;;;;5031944;28;20041;-50
2024/02/24 03:41:08;;;;;;;4.05;3.55;;;;;;;;;;5031813;28;20589;-50
2024/02/24 03:43:35;;;;;;;3.60;3.03;;;;;;;;;;5031718;28;20079;-50
2024/02/24 03:46:02;;;;;;;2.72;2.40;;;;;;;;;;5025682;28;20504;-50
2024/02/24 03:48:29;;;;;;;13.88;3.53;;;;;;;;;;5011688;28;20029;-50
2024/02/24 03:50:55;;;;;;;3.47;2.55;;;;;;;;;;5012064;28;20053;-50
2024/02/24 03:53:21;;;;;;;2.53;2.23;;;;;;;;;;5011914;28;20034;-50
2024/02/24 03:55:49;;;;;;;4.20;2.40;;;;;;;;;;5023643;28;20036;-52
2024/02/24 03:58:16;;;;;;;1.92;1.73;;;;;;;;;;5012888;28;20272;-50
2024/02/24 04:00:42;;;;;;;3.45;2.22;;;;;;;;;;5000118;28;20034;-49
2024/02/24 04:03:08;;;;;;;2.50;1.90;;;;;;;;;;5020522;28;20060;-50
2024/02/24 04:05:35;;;;;;;1.60;1.50;;;;;;;;;;5030972;28;20025;-51
2024/02/24 04:08:01;;;;;;;4.85;1.90;;;;;;;;;;5030319;28;20036;-50
2024/02/24 04:10:27;;;;;;;2.17;1.93;;;;;;;;;;5024586;28;20029;-50
2024/02/24 04:12:53;;;;;;;2.38;1.90;;;;;;;;;;5013555;28;20065;-49
2024/02/24 04:15:20;;;;;;;1.70;1.60;;;;;;;;;;5012761;28;20036;-53
2024/02/24 04:17:46;;;;;;;2.70;1.63;;;;;;;;;;5010667;28;20022;-51
2024/02/24 04:20:16;;;;;;;1.30;1.10;;;;;;;;;;5024316;28;20412;-49
2024/02/24 04:22:42;;;;;;;1.30;1.02;;;;;;;;;;5027020;28;20024;-49
2024/02/24 04:25:09;;;;;;;2.08;1.50;;;;;;;;;;5011590;28;20026;-48
2024/02/24 04:27:35;;;;;;;2.92;1.60;;;;;;;;;;5011536;28;20035;-51
2024/02/24 04:30:01;;;;;;;2.50;1.40;;;;;;;;;;5028147;28;20071;-49
2024/02/24 04:32:28;;;;;;;2.05;1.80;;;;;;;;;;5010684;28;20030;-51
2024/02/24 04:34:54;;;;;;;1.90;1.50;;;;;;;;;;5023461;28;20476;-50
2024/02/24 04:37:21;;;;;;;1.65;1.55;;;;;;;;;;5029813;28;20412;-49
2024/02/24 04:39:47;;;;;;;2.00;1.40;;;;;;;;;;5020467;28;20034;-48
2024/02/24 04:42:14;;;;;;;1.70;1.60;;;;;;;;;;5029668;28;20550;-49
2024/02/24 04:44:40;;;;;;;2.85;1.60;;;;;;;;;;5015870;28;20037;-49
2024/02/24 04:47:06;;;;;;;1.65;1.55;;;;;;;;;;5025970;28;20467;-50
2024/02/24 04:49:33;;;;;;;2.88;1.73;;;;;;;;;;5024995;28;20030;-49
2024/02/24 04:51:59;;;;;;;2.93;1.80;;;;;;;;;;5011052;28;20049;-47
2024/02/24 04:54:25;;;;;;;2.08;1.65;;;;;;;;;;5019135;28;20030;-50
2024/02/24 04:56:51;;;;;;;2.47;2.13;;;;;;;;;;5011071;28;20034;-49
2024/02/24 04:59:18;;;;;;;2.10;1.60;;;;;;;;;;5011845;28;20056;-51
2024/02/24 05:01:44;;;;;;;2.30;1.95;;;;;;;;;;5014918;28;20084;-52
2024/02/24 05:04:10;;;;;;;2.95;2.25;;;;;;;;;;5014932;28;20033;-49
2024/02/24 05:06:36;;;;;;;2.45;1.63;;;;;;;;;;5014737;28;20026;-51
2024/02/24 05:09:03;;;;;;;4.47;2.53;;;;;;;;;;5014983;28;20018;-49
2024/02/24 05:11:29;;;;;;;3.15;2.25;;;;;;;;;;5014822;28;20040;-52
2024/02/24 05:13:55;;;;;;;3.20;2.33;;;;;;;;;;5014807;28;20157;-49
2024/02/24 05:16:21;;;;;;;3.70;2.28;;;;;;;;;;5014726;28;20034;-51
2024/02/24 05:18:47;;;;;;;4.47;2.03;;;;;;;;;;5014751;28;20025;-50
2024/02/24 05:21:21;;;;;;;3.85;2.90;;;;;;;;;;5014682;28;20029;-49
2024/02/24 05:23:47;;;;;;;4.43;3.13;;;;;;;;;;5014621;28;20057;-53
2024/02/24 05:26:26;;;;;;;6.33;4.03;;;;;;;;;;5014487;28;20025;-53
2024/02/24 05:28:52;;;;;;;7.53;3.63;;;;;;;;;;5014551;28;20280;-53
2024/02/24 05:31:19;;;;;;;7.13;4.40;;;;;;;;;;5014709;28;20109;-50
2024/02/24 05:33:46;;;;;;;6.20;5.03;;;;;;;;;;5014384;28;20037;-52
2024/02/24 05:36:13;;;;;;;8.77;6.05;;;;;;;;;;5012974;28;20026;-48
2024/02/24 05:38:40;;;;;;;10.68;7.13;;;;;;;;;;5012945;28;20040;-50
2024/02/24 05:41:07;;;;;;;15.38;8.00;;;;;;;;;;5014410;28;20033;-49
2024/02/24 05:43:33;;;;;;;15.85;10.52;;;;;;;;;;5014408;28;20029;-49
2024/02/24 05:46:03;;;;;;;15.32;9.38;;;;;;;;;;5014386;28;20453;-49
2024/02/24 05:48:36;;;;;;;19.30;10.68;;;;;;;;;;5012930;28;20485;-50
2024/02/24 05:51:04;;;;;;;14.65;10.13;;;;;;;;;;5014268;28;20551;-49
2024/02/24 05:53:31;;;;;;;15.65;10.38;;;;;;;;;;5014196;28;20101;-49
2024/02/24 05:55:57;;;;;;;12.57;9.07;;;;;;;;;;5012780;28;20038;-50
2024/02/24 05:58:23;;;;;;;15.33;10.87;;;;;;;;;;5014131;28;20034;-51
2024/02/24 06:00:49;;;;;;;17.42;9.68;;;;;;;;;;5014020;28;20488;-49
2024/02/24 06:03:16;;;;;;;13.80;9.23;;;;;;;;;;4996175;28;20071;-49
2024/02/24 06:05:42;;;;;;;20.50;11.13;;;;;;;;;;5013629;28;20034;-50
2024/02/24 06:08:08;;;;;;;14.83;9.33;;;;;;;;;;5013941;28;20739;-50
2024/02/24 06:10:35;;;;;;;21.13;11.23;;;;;;;;;;5012618;28;20056;-50
2024/02/24 06:13:01;;;;;;;14.63;10.07;;;;;;;;;;5013259;28;20050;-49
2024/02/24 06:15:28;;;;;;;12.77;9.30;;;;;;;;;;5012282;28;20037;-50
2024/02/24 06:17:54;;;;;;;16.33;9.77;;;;;;;;;;5013765;28;20543;-51
2024/02/24 06:20:21;;;;;;;13.30;8.57;;;;;;;;;;5012493;28;20045;-49
2024/02/24 06:22:48;;;;;;;14.73;8.40;;;;;;;;;;5013600;28;20055;-50
2024/02/24 06:25:14;;;;;;;13.70;9.90;;;;;;;;;;5012221;28;20408;-50
2024/02/24 06:27:40;;;;;;;15.43;8.55;;;;;;;;;;5013406;28;20070;-49
2024/02/24 06:30:10;;;;;;;17.53;9.30;;;;;;;;;;5013622;28;20034;-48
2024/02/24 06:32:36;;;;;;;15.00;8.57;;;;;;;;;;5013283;28;20030;-50
2024/02/24 06:35:02;;;;;;;12.20;8.35;;;;;;;;;;5013469;28;20033;-49
2024/02/24 06:37:29;;;;;;;11.33;7.33;;;;;;;;;;5013235;28;20568;-49
2024/02/24 06:39:55;;;;;;;12.43;8.10;;;;;;;;;;5013336;28;20092;-49
2024/02/24 06:42:21;;;;;;;11.85;7.60;;;;;;;;;;5013190;28;20040;-49
2024/02/24 06:44:47;;;;;;;12.82;7.90;;;;;;;;;;5013246;28;20033;-50
2024/02/24 06:47:14;;;;;;;11.23;7.50;;;;;;;;;;5012929;28;20030;-50
2024/02/24 06:49:40;;;;;;;10.10;7.73;;;;;;;;;;5011967;28;20030;-49
2024/02/24 06:52:06;;;;;;;11.60;7.95;;;;;;;;;;5013088;28;20018;-49
2024/02/24 06:54:33;;;;;;;9.40;7.47;;;;;;;;;;5013261;28;20022;-50
2024/02/24 06:56:59;;;;;;;11.70;7.25;;;;;;;;;;5012856;28;20100;-49
2024/02/24 06:59:26;;;;;;;9.38;7.18;;;;;;;;;;5011841;28;20058;-49
2024/02/24 07:01:55;;;;;;;11.25;6.60;;;;;;;;;;5011344;28;20068;-50
2024/02/24 07:04:21;;;;;;;15.20;7.50;;;;;;;;;;5012923;28;20043;-51
2024/02/24 07:06:47;;;;;;;12.38;7.07;;;;;;;;;;5012633;28;20393;-49
2024/02/24 07:09:14;;;;;;;12.32;7.10;;;;;;;;;;5012878;28;20033;-49
2024/02/24 07:11:40;;;;;;;11.10;6.68;;;;;;;;;;5012703;28;20034;-49
2024/02/24 07:14:06;;;;;;;12.27;7.63;;;;;;;;;;5011397;28;20030;-49
2024/02/24 07:16:33;;;;;;;10.27;7.83;;;;;;;;;;5012517;28;20026;-49
2024/02/24 07:18:59;;;;;;;12.68;9.10;;;;;;;;;;5011452;28;20550;-48
2024/02/24 07:21:25;;;;;;;13.20;8.82;;;;;;;;;;5012583;28;20110;-49
2024/02/24 07:23:51;;;;;;;14.53;9.70;;;;;;;;;;5011733;28;20037;-49
2024/02/24 07:26:18;;;;;;;10.97;8.97;;;;;;;;;;5012240;28;20037;-49
2024/02/24 07:28:45;;;;;;;12.60;8.63;;;;;;;;;;5012538;28;20327;-47
2024/02/24 07:31:11;;;;;;;12.18;8.65;;;;;;;;;;5012502;28;20034;-49
2024/02/24 07:33:37;;;;;;;19.25;10.77;;;;;;;;;;5012391;28;20141;-50
2024/02/24 07:36:03;;;;;;;15.48;10.25;;;;;;;;;;5010794;28;20435;-49
2024/02/24 07:38:30;;;;;;;15.73;11.40;;;;;;;;;;5012159;28;20496;-49
2024/02/24 07:40:56;;;;;;;19.30;11.25;;;;;;;;;;5012371;28;20492;-48
2024/02/24 07:43:22;;;;;;;18.33;10.68;;;;;;;;;;5012105;28;20022;-49
2024/02/24 07:45:49;;;;;;;22.73;12.43;;;;;;;;;;5011870;28;20056;-49
2024/02/24 07:48:16;;;;;;;18.13;11.07;;;;;;;;;;5012245;28;20037;-49
2024/02/24 07:50:42;;;;;;;18.75;12.10;;;;;;;;;;5012023;28;20030;-48
2024/02/24 07:53:08;;;;;;;18.63;12.73;;;;;;;;;;5012101;28;20022;-48
2024/02/24 07:55:34;;;;;;;17.60;12.33;;;;;;;;;;5011914;28;20030;-49
2024/02/24 07:58:01;;;;;;;21.13;14.32;;;;;;;;;;5012046;28;20021;-48
2024/02/24 08:00:27;;;;;;;22.57;15.37;;;;;;;;;;5011966;28;20026;-48
2024/02/24 08:02:53;;;;;;;20.35;15.43;;;;;;;;;;5011855;28;20283;-49
2024/02/24 08:05:20;;;;;;;22.67;16.92;;;;;;;;;;5011536;28;20504;-48
2024/02/24 08:07:47;;;;;;;29.38;17.90;;;;;;;;;;5011951;28;20124;-49
2024/02/24 08:10:13;;;;;;;35.13;19.90;;;;;;;;;;5011826;28;20033;-49
2024/02/24 08:12:39;;;;;;;34.00;19.45;;;;;;;;;;5011622;28;20049;-48
2024/02/24 08:15:06;;;;;;;31.98;16.88;;;;;;;;;;5011881;28;20100;-49
2024/02/24 08:17:32;;;;;;;32.30;17.00;;;;;;;;;;5011994;28;20030;-48
2024/02/24 08:19:58;;;;;;;39.97;18.02;;;;;;;;;;5011773;28;20088;-47
2024/02/24 08:22:24;;;;;;;25.00;16.05;;;;;;;;;;5010434;28;20408;-48
2024/02/24 08:24:51;;;;;;;29.42;13.65;;;;;;;;;;5011710;28;20037;-49
2024/02/24 08:27:18;;;;;;;30.17;14.27;;;;;;;;;;5009288;28;20505;-49
2024/02/24 08:29:44;;;;;;;22.35;14.68;;;;;;;;;;5011099;28;20105;-49
2024/02/24 08:32:10;;;;;;;22.00;13.55;;;;;;;;;;5011654;28;20065;-47
2024/02/24 08:34:36;;;;;;;26.20;14.73;;;;;;;;;;5011524;28;20029;-48
2024/02/24 08:37:02;;;;;;;23.55;14.15;;;;;;;;;;5015179;28;20034;-49
2024/02/24 08:39:29;;;;;;;36.95;16.42;;;;;;;;;;5015596;28;20038;-50
2024/02/24 08:41:56;;;;;;;28.38;16.45;;;;;;;;;;5015432;28;20030;-48
2024/02/24 08:44:22;;;;;;;24.98;15.70;;;;;;;;;;5015425;28;20033;-48
2024/02/24 08:46:49;;;;;;;24.23;16.38;;;;;;;;;;5015369;28;20035;-47
2024/02/24 08:49:15;;;;;;;24.20;14.33;;;;;;;;;;5015627;28;20108;-46
2024/02/24 08:51:41;;;;;;;27.65;15.38;;;;;;;;;;5014001;28;20396;-49
2024/02/24 08:54:07;;;;;;;26.30;16.73;;;;;;;;;;5015298;28;20030;-50
2024/02/24 08:56:33;;;;;;;23.85;17.13;;;;;;;;;;5014907;28;20025;-48
2024/02/24 08:59:00;;;;;;;26.42;15.40;;;;;;;;;;5013992;28;20029;-52
2024/02/24 09:01:27;;;;;;;56.70;23.98;;;;;;;;;;5015153;28;20030;-48
2024/02/24 09:03:53;;;;;;;38.22;19.20;;;;;;;;;;5015037;28;20077;-48
2024/02/24 09:06:19;;;;;;;32.78;18.13;;;;;;;;;;5014830;28;20080;-49
2024/02/24 09:08:45;;;;;;;28.13;18.00;;;;;;;;;;4997390;28;20512;-49
2024/02/24 09:11:12;;;;;;;30.95;19.05;;;;;;;;;;5015055;28;20070;-49
2024/02/24 09:13:38;;;;;;;26.58;18.60;;;;;;;;;;5014847;28;20033;-49
2024/02/24 09:16:04;;;;;;;34.10;20.25;;;;;;;;;;5014821;28;20153;-51
2024/02/24 09:18:31;;;;;;;31.50;19.08;;;;;;;;;;5013543;28;20396;-50
2024/02/24 09:20:57;;;;;;;29.45;19.77;;;;;;;;;;5014880;28;20373;-51
2024/02/24 09:23:23;;;;;;;33.63;21.60;;;;;;;;;;5014760;28;20038;-51
2024/02/24 09:25:49;;;;;;;29.52;18.73;;;;;;;;;;5014428;28;20060;-52
2024/02/24 09:28:16;;;;;;;29.75;19.45;;;;;;;;;;5014654;28;20034;-49
2024/02/24 09:30:42;;;;;;;39.55;21.95;;;;;;;;;;5014688;28;20108;-52
2024/02/24 09:33:08;;;;;;;33.80;21.23;;;;;;;;;;5014514;28;20030;-51
2024/02/24 09:35:34;;;;;;;36.13;20.50;;;;;;;;;;5014397;28;20033;-50
2024/02/24 09:38:00;;;;;;;43.72;27.38;;;;;;;;;;5014527;28;20036;-49
2024/02/24 09:40:28;;;;;;;36.43;22.97;;;;;;;;;;5014582;28;20041;-50
2024/02/24 09:42:54;;;;;;;;;;;;;;;;;;5014775;28;20021;-52
2024/02/24 09:45:21;;;;;;;33.80;21.00;;;;;;;;;;5014203;28;19909;-51
2024/02/24 09:47:47;;;;;;;33.90;20.92;;;;;;;;;;5013337;28;20044;-49
2024/02/24 09:50:14;;;;;;;35.28;20.70;;;;;;;;;;5013967;28;20026;-50
2024/02/24 09:52:43;;;;;;;37.20;23.65;;;;;;;;;;5014073;28;20057;-48
2024/02/24 09:55:10;;;;;;;34.22;22.25;;;;;;;;;;5013978;28;20109;-50
2024/02/24 09:57:39;;;;;;;34.15;21.85;;;;;;;;;;5014289;28;20049;-52
2024/02/24 10:00:05;;;;;;;39.17;26.95;;;;;;;;;;5014143;28;20030;-49
2024/02/24 10:02:38;;;;;;;33.65;21.70;;;;;;;;;;5013828;28;20042;-49
2024/02/24 10:05:04;;;;;;;26.83;19.25;;;;;;;;;;5013937;28;20044;-51
2024/02/24 10:07:34;;;;;;;28.27;19.13;;;;;;;;;;5013975;28;20029;-49
2024/02/24 10:10:00;;;;;;;34.33;20.42;;;;;;;;;;5014023;28;20026;-49
2024/02/24 10:12:26;;;;;;;32.17;21.58;;;;;;;;;;5013881;28;20052;-50
2024/02/24 10:14:54;;;;;;;34.10;22.35;;;;;;;;;;5013752;28;20026;-53
2024/02/24 10:17:20;;;;;;;35.00;21.27;;;;;;;;;;5012344;28;20041;-49
2024/02/24 10:19:46;;;;;;;35.17;23.27;;;;;;;;;;5013587;28;20030;-52
2024/02/24 10:22:16;;;;;;;37.85;23.20;;;;;;;;;;5012655;28;20038;-50
2024/02/24 10:24:42;;;;;;;31.98;21.33;;;;;;;;;;5013454;28;20030;-50
2024/02/24 10:27:09;;;;;;;29.83;20.38;;;;;;;;;;5013037;28;20029;-49
2024/02/24 10:29:35;;;;;;;39.95;22.02;;;;;;;;;;5013695;28;20440;-50
2024/02/24 10:32:02;;;;;;;30.45;19.65;;;;;;;;;;5013780;28;20052;-50
2024/02/24 10:34:28;;;;;;;31.25;21.20;;;;;;;;;;5012070;28;20030;-49
2024/02/24 10:37:00;;;;;;;25.75;18.55;;;;;;;;;;5013188;28;20056;-50
2024/02/24 10:39:28;;;;;;;24.58;16.85;;;;;;;;;;5013284;28;20038;-51
2024/02/24 10:41:54;;;;;;;28.42;18.58;;;;;;;;;;5013016;28;20022;-50
2024/02/24 10:44:21;;;;;;;34.83;17.98;;;;;;;;;;5013198;28;20034;-49
2024/02/24 10:46:49;;;;;;;26.67;16.73;;;;;;;;;;4995236;28;20030;-48
2024/02/24 10:49:16;;;;;;;24.25;16.73;;;;;;;;;;5011821;28;20041;-52
2024/02/24 10:51:45;;;;;;;32.55;17.73;;;;;;;;;;5012876;28;20029;-48
2024/02/24 10:54:17;;;;;;;25.13;15.27;;;;;;;;;;5012881;28;20030;-51
2024/02/24 10:56:44;;;;;;;23.15;15.70;;;;;;;;;;5012687;28;20397;-50
2024/02/24 10:59:11;;;;;;;23.23;14.68;;;;;;;;;;5011428;28;20480;-51
2024/02/24 11:01:45;;;;;;;28.23;17.67;;;;;;;;;;4995104;28;20493;-51
2024/02/24 11:04:12;;;;;;;24.02;16.30;;;;;;;;;;5012770;28;20061;-50
2024/02/24 11:06:45;;;;;;;21.15;13.82;;;;;;;;;;5012559;28;20030;-52
2024/02/24 11:09:21;;;;;;;25.67;15.25;;;;;;;;;;5012677;28;20032;-48
2024/02/24 11:11:48;;;;;;;27.48;14.30;;;;;;;;;;5012565;28;20018;-48
2024/02/24 11:14:16;;;;;;;18.73;12.50;;;;;;;;;;5012699;28;20029;-49
2024/02/24 11:16:43;;;;;;;19.65;12.80;;;;;;;;;;5012400;28;20260;-49
2024/02/24 11:19:12;;;;;;;29.42;15.65;;;;;;;;;;5012551;28;20033;-51
2024/02/24 11:21:57;;;;;;;17.23;12.70;;;;;;;;;;5012326;28;20631;-49
2024/02/24 11:24:23;;;;;;;23.02;14.18;;;;;;;;;;5012321;28;20061;-48
2024/02/24 11:26:49;;;;;;;20.37;12.57;;;;;;;;;;5012198;28;20395;-48
2024/02/24 11:29:18;;;;;;;20.40;13.15;;;;;;;;;;5012450;28;20034;-48
2024/02/24 11:31:45;;;;;;;16.63;12.55;;;;;;;;;;5012284;28;20076;-50
2024/02/24 11:34:11;;;;;;;22.25;12.05;;;;;;;;;;5012377;28;20125;-49
2024/02/24 11:36:41;;;;;;;17.80;12.23;;;;;;;;;;5012135;28;20029;-48
2024/02/24 11:39:08;;;;;;;19.95;13.82;;;;;;;;;;5012153;28;20033;-52
2024/02/24 11:41:34;;;;;;;;;;;;;;;;;;5012716;28;20041;-50
2024/02/24 11:44:01;;;;;;;22.98;14.93;;;;;;;;;;5012140;28;19952;-49
2024/02/24 11:46:28;;;;;;;18.25;13.05;;;;;;;;;;5012005;28;20403;-48
2024/02/24 11:48:55;;;;;;;21.15;13.15;;;;;;;;;;5012110;28;20022;-49
2024/02/24 11:51:25;;;;;;;23.75;14.55;;;;;;;;;;5011997;28;20037;-51
2024/02/24 11:53:52;;;;;;;29.85;14.93;;;;;;;;;;5011949;28;20507;-52
2024/02/24 11:56:19;;;;;;;19.15;13.88;;;;;;;;;;5020652;28;20065;-50
2024/02/24 11:58:45;;;;;;;21.13;14.23;;;;;;;;;;5010603;28;20029;-51
2024/02/24 12:01:15;;;;;;;24.25;17.20;;;;;;;;;;5010368;28;20026;-50
2024/02/24 12:03:41;;;;;;;22.65;16.77;;;;;;;;;;5006642;28;20030;-49
2024/02/24 12:06:08;;;;;;;22.50;15.47;;;;;;;;;;5001230;28;20030;-50
2024/02/24 12:08:36;;;;;;;24.33;15.45;;;;;;;;;;4993131;28;20109;-52
2024/02/24 12:11:02;;;;;;;24.38;16.48;;;;;;;;;;5008625;28;20034;-51
2024/02/24 12:13:29;;;;;;;29.88;22.02;;;;;;;;;;5015133;28;20029;-50
2024/02/24 12:15:57;;;;;;;19.45;14.18;;;;;;;;;;5023110;28;20048;-48
2024/02/24 12:18:24;;;;;;;23.38;13.70;;;;;;;;;;5028917;28;20061;-50
2024/02/24 12:20:53;;;;;;;19.77;13.80;;;;;;;;;;5024508;28;20515;-49
2024/02/24 12:23:22;;;;;;;20.50;16.98;;;;;;;;;;5026335;28;20037;-51
2024/02/24 12:25:49;;;;;;;20.50;13.13;;;;;;;;;;5009990;28;20405;-48
2024/02/24 12:28:18;;;;;;;24.58;17.65;;;;;;;;;;5016348;28;20435;-50
2024/02/24 12:30:45;;;;;;;21.63;13.18;;;;;;;;;;5014081;28;20045;-50
2024/02/24 12:33:12;;;;;;;20.35;14.73;;;;;;;;;;5011137;28;20049;-49
2024/02/24 12:35:38;;;;;;;21.33;12.45;;;;;;;;;;5029507;28;20029;-49
2024/02/24 12:38:05;;;;;;;19.40;13.23;;;;;;;;;;5028317;28;20032;-53
2024/02/24 12:40:36;;;;;;;19.08;12.52;;;;;;;;;;5010415;28;20018;-49
2024/02/24 12:43:03;;;;;;;12.98;8.88;;;;;;;;;;5009839;28;20022;-50
2024/02/24 12:45:29;;;;;;;13.63;10.18;;;;;;;;;;5011368;28;20038;-49
2024/02/24 12:47:56;;;;;;;17.50;11.07;;;;;;;;;;5017383;28;20068;-48
2024/02/24 12:50:24;;;;;;;19.33;12.10;;;;;;;;;;5022754;28;20026;-49
2024/02/24 12:52:50;;;;;;;16.75;11.43;;;;;;;;;;5029490;28;20085;-52
2024/02/24 12:55:17;;;;;;;18.05;12.98;;;;;;;;;;5025249;28;20439;-49
2024/02/24 12:57:44;;;;;;;20.83;13.73;;;;;;;;;;5016798;28;20128;-48
2024/02/24 13:00:11;;;;;;;25.60;17.50;;;;;;;;;;5028364;28;20112;-48
2024/02/24 13:02:37;;;;;;;26.10;15.27;;;;;;;;;;5028688;28;20029;-49
2024/02/24 13:05:04;;;;;;;22.05;13.98;;;;;;;;;;5019195;28;20046;-51
2024/02/24 13:07:31;;;;;;;22.15;14.55;;;;;;;;;;5009528;28;20026;-49
2024/02/24 13:09:57;;;;;;;22.63;14.53;;;;;;;;;;5008467;28;20065;-50
2024/02/24 13:12:23;;;;;;;23.67;15.43;;;;;;;;;;5025749;28;20032;-52
2024/02/24 13:14:49;;;;;;;26.53;15.47;;;;;;;;;;5014856;28;20069;-49
2024/02/24 13:17:16;;;;;;;28.27;17.65;;;;;;;;;;5026929;28;20029;-49
2024/02/24 13:19:42;;;;;;;22.88;16.25;;;;;;;;;;5028309;28;20554;-52
2024/02/24 13:22:09;;;;;;;25.23;16.40;;;;;;;;;;5031230;28;20037;-49
2024/02/24 13:24:35;;;;;;;24.23;17.37;;;;;;;;;;5030283;28;20033;-49
2024/02/24 13:27:01;;;;;;;25.23;17.92;;;;;;;;;;5019323;28;20284;-49
2024/02/24 13:29:29;;;;;;;29.10;16.97;;;;;;;;;;5013094;28;20116;-51
2024/02/24 13:31:56;;;;;;;32.08;19.13;;;;;;;;;;5027292;28;20230;-53
2024/02/24 13:34:22;;;;;;;25.92;16.08;;;;;;;;;;5018334;28;20026;-50
2024/02/24 13:36:48;;;;;;;24.52;15.90;;;;;;;;;;5012763;28;20045;-49
2024/02/24 13:39:15;;;;;;;9.77;6.90;;;;;;;;;;5012940;28;20044;-52
2024/02/24 13:41:41;;;;;;;10.13;6.03;;;;;;;;;;5020889;28;20506;-51
2024/02/24 13:44:12;;;;;;;9.35;3.75;;;;;;;;;;5030921;28;20029;-51
2024/02/24 13:46:46;;;;;;;5.72;3.70;;;;;;;;;;5019406;28;20595;-52
2024/02/24 13:49:12;;;;;;;9.63;3.00;;;;;;;;;;5012871;28;20137;-50
2024/02/24 13:51:39;;;;;;;5.07;2.07;;;;;;;;;;5026451;28;20025;-50
2024/02/24 13:54:05;;;;;;;12.43;2.70;;;;;;;;;;5026441;28;20075;-51
2024/02/24 13:56:32;;;;;;;3.50;1.50;;;;;;;;;;4993151;28;20449;-51
2024/02/24 13:59:01;;;;;;;3.43;1.60;;;;;;;;;;5010554;28;20028;-49
2024/02/24 14:01:28;;;;;;;5.47;1.50;;;;;;;;;;5032188;28;20033;-52
2024/02/24 14:03:54;;;;;;;4.07;3.65;;;;;;;;;;5032178;28;20087;-50
2024/02/24 14:06:20;;;;;;;3.90;1.97;;;;;;;;;;5085174;22;20041;-49
2024/02/24 14:08:47;;;;;;;18.53;10.73;;;;;;;;;;5052535;28;20020;-51
2024/02/24 14:11:13;;;;;;;3.43;2.87;;;;;;;;;;5044196;28;20087;-50
2024/02/24 14:13:40;;;;;;;3.35;2.15;;;;;;;;;;5064978;28;20263;-52
2024/02/24 14:16:06;;;;;;;6.73;3.47;;;;;;;;;;5042600;28;20510;-50
2024/02/24 14:18:32;;;;;;;5.63;2.20;;;;;;;;;;5032789;28;20472;-51
2024/02/24 14:20:58;;;;;;;3.95;2.20;;;;;;;;;;4998304;28;20037;-52
2024/02/24 14:23:25;;;;;;;4.47;2.65;;;;;;;;;;5033564;28;20068;-56
2024/02/24 14:25:51;;;;;;;3.67;1.93;;;;;;;;;;5033050;28;20034;-56